createdAt,value
2022-09-27T00:01:47.307Z,87.35
2022-09-27T00:05:09.060Z,87.40
2022-09-27T00:08:33.146Z,87.79
2022-09-27T00:11:57.376Z,86.67
2022-09-27T00:15:18.911Z,86.54
2022-09-27T00:18:40.710Z,86.71
2022-09-27T00:22:04.530Z,87.23
2022-09-27T00:25:30.823Z,87.73
2022-09-27T00:28:52.376Z,86.77
2022-09-27T00:32:16.410Z,86.85
2022-09-27T00:35:37.920Z,86.94
2022-09-27T00:39:04.205Z,86.60
2022-09-27T00:42:28.066Z,87.85
2022-09-27T00:46:08.576Z,87.98
2022-09-27T00:49:38.488Z,87.16
2022-09-27T00:53:38.707Z,87.84
2022-09-27T00:57:00.597Z,87.62
2022-09-27T01:00:22.991Z,87.78
2022-09-27T01:04:07.810Z,88.36
2022-09-27T01:07:31.432Z,88.39
2022-09-27T01:11:14.894Z,88.27
2022-09-27T01:14:48.837Z,86.77
2022-09-27T01:18:39.143Z,87.14
2022-09-27T01:22:09.745Z,87.51
2022-09-27T01:25:53.163Z,87.37
2022-09-27T01:29:45.763Z,87.52
2022-09-27T01:33:49.111Z,87.89
2022-09-27T01:37:25.188Z,87.77
2022-09-27T01:40:53.669Z,87.50
2022-09-27T01:44:18.476Z,87.51
2022-09-27T01:47:53.992Z,87.42
2022-09-27T01:51:54.400Z,87.62
2022-09-27T01:55:22.633Z,87.29
2022-09-27T01:59:06.270Z,87.37
2022-09-27T02:02:31.553Z,87.51
2022-09-27T02:06:01.600Z,87.17
2022-09-27T02:09:28.838Z,87.23
2022-09-27T02:13:04.004Z,86.81
2022-09-27T02:16:34.042Z,86.45
2022-09-27T02:20:18.569Z,87.04
2022-09-27T02:23:44.574Z,86.91
2022-09-27T02:27:18.037Z,85.97
2022-09-27T02:30:41.850Z,85.83
2022-09-27T02:34:23.513Z,86.01
2022-09-27T02:37:45.266Z,85.70
2022-09-27T02:41:17.796Z,85.99
2022-09-27T02:44:40.832Z,86.54
2022-09-27T02:48:17.526Z,85.89
2022-09-27T02:52:19.205Z,84.97
2022-09-27T02:55:48.275Z,85.76
2022-09-27T02:59:26.995Z,86.38
2022-09-27T03:02:48.536Z,86.32
2022-09-27T03:06:13.707Z,87.31
2022-09-27T03:09:51.488Z,87.67
2022-09-27T03:13:15.845Z,87.60
2022-09-27T03:16:37.462Z,87.42
2022-09-27T03:19:58.990Z,86.88
2022-09-27T03:23:21.304Z,85.64
2022-09-27T03:26:43.021Z,86.29
2022-09-27T03:30:08.165Z,86.97
2022-09-27T03:33:31.975Z,86.37
2022-09-27T03:36:55.885Z,85.60
2022-09-27T03:40:19.761Z,87.75
2022-09-27T03:43:44.024Z,86.59
2022-09-27T03:47:05.570Z,87.08
2022-09-27T03:50:27.154Z,87.41
2022-09-27T03:53:49.186Z,86.87
2022-09-27T03:57:11.193Z,86.93
2022-09-27T04:00:32.805Z,87.17
2022-09-27T04:03:54.478Z,86.87
2022-09-27T04:07:18.472Z,86.05
2022-09-27T04:10:40.101Z,85.90
2022-09-27T04:14:02.002Z,85.82
2022-09-27T04:17:24.932Z,85.58
2022-09-27T04:20:46.568Z,86.18
2022-09-27T04:24:13.280Z,86.77
2022-09-27T04:27:34.904Z,86.58
2022-09-27T04:30:59.555Z,87.22
2022-09-27T04:34:45.541Z,87.23
2022-09-27T04:38:07.501Z,87.03
2022-09-27T04:41:29.704Z,87.10
2022-09-27T04:44:51.224Z,87.09
2022-09-27T04:48:12.746Z,87.13
2022-09-27T04:51:34.325Z,86.85
2022-09-27T04:54:55.812Z,86.76
2022-09-27T04:58:17.904Z,86.61
2022-09-27T05:01:40.176Z,87.20
2022-09-27T05:05:01.900Z,86.51
2022-09-27T05:08:26.171Z,86.44
2022-09-27T05:11:50.194Z,87.28
2022-09-27T05:15:14.692Z,87.61
2022-09-27T05:18:49.501Z,87.85
2022-09-27T05:22:13.195Z,87.66
2022-09-27T05:25:34.967Z,87.88
2022-09-27T05:28:56.539Z,88.33
2022-09-27T05:32:21.449Z,88.30
2022-09-27T05:35:54.526Z,88.90
2022-09-27T05:39:17.345Z,88.43
2022-09-27T05:42:40.117Z,88.67
2022-09-27T05:46:05.577Z,88.82
2022-09-27T05:49:29.532Z,88.81
2022-09-27T05:52:54.189Z,88.68
2022-09-27T05:56:15.694Z,88.52
2022-09-27T05:59:37.326Z,88.79
2022-09-27T06:03:03.340Z,88.59
2022-09-27T06:06:27.343Z,89.34
2022-09-27T06:09:51.683Z,89.43
2022-09-27T06:13:15.359Z,90.10
2022-09-27T06:16:41.779Z,89.72
2022-09-27T06:20:07.685Z,91.52
2022-09-27T06:23:32.708Z,91.31
2022-09-27T06:26:54.284Z,90.50
2022-09-27T06:30:20.481Z,89.51
2022-09-27T06:33:42.243Z,88.88
2022-09-27T06:37:06.076Z,88.14
2022-09-27T06:40:32.552Z,87.43
2022-09-27T06:43:59.168Z,87.64
2022-09-27T06:47:20.703Z,89.11
2022-09-27T06:50:46.619Z,88.71
2022-09-27T06:54:08.166Z,89.59
2022-09-27T06:57:48.062Z,89.43
2022-09-27T07:01:10.390Z,88.60
2022-09-27T07:04:36.572Z,88.47
2022-09-27T07:07:58.757Z,87.44
2022-09-27T07:11:22.059Z,87.35
2022-09-27T07:14:43.602Z,87.89
2022-09-27T07:18:09.363Z,87.38
2022-09-27T07:21:32.138Z,87.28
2022-09-27T07:24:53.686Z,87.19
2022-09-27T07:28:21.824Z,87.56
2022-09-27T07:31:48.938Z,87.40
2022-09-27T07:35:11.863Z,85.90
2022-09-27T07:38:35.698Z,86.28
2022-09-27T07:42:02.403Z,86.93
2022-09-27T07:45:28.869Z,85.61
2022-09-27T07:48:52.427Z,84.20
2022-09-27T07:52:13.927Z,81.28
2022-09-27T07:55:35.493Z,81.52
2022-09-27T07:58:59.718Z,80.14
2022-09-27T08:02:21.924Z,78.36
2022-09-27T08:05:47.461Z,79.09
2022-09-27T08:09:12.040Z,79.70
2022-09-27T08:12:33.620Z,79.67
2022-09-27T08:16:01.685Z,79.99
2022-09-27T08:19:23.478Z,80.23
2022-09-27T08:22:45.698Z,80.40
2022-09-27T08:26:09.299Z,81.88
2022-09-27T08:29:31.121Z,83.56
2022-09-27T08:33:00.120Z,83.35
2022-09-27T08:36:21.653Z,83.98
2022-09-27T08:39:47.604Z,84.88
2022-09-27T08:43:28.326Z,84.86
2022-09-27T08:47:04.971Z,85.61
2022-09-27T08:50:28.888Z,84.95
2022-09-27T08:54:02.782Z,85.17
2022-09-27T08:57:25.499Z,85.70
2022-09-27T09:00:52.039Z,85.53
2022-09-27T09:04:22.391Z,85.50
2022-09-27T09:08:04.920Z,85.31
2022-09-27T09:12:03.728Z,86.59
2022-09-27T09:15:58.516Z,86.80
2022-09-27T09:19:39.445Z,86.99
2022-09-27T09:23:07.140Z,86.25
2022-09-27T09:26:40.557Z,85.95
2022-09-27T09:30:20.637Z,85.74
2022-09-27T09:33:57.231Z,86.05
2022-09-27T09:37:24.764Z,85.58
2022-09-27T09:40:58.285Z,85.67
2022-09-27T09:44:34.161Z,86.30
2022-09-27T09:48:09.361Z,86.07
2022-09-27T09:51:44.293Z,86.44
2022-09-27T09:55:22.962Z,87.52
2022-09-27T09:58:56.815Z,87.36
2022-09-27T10:02:24.327Z,87.78
2022-09-27T10:05:46.563Z,87.45
2022-09-27T10:09:13.826Z,88.22
2022-09-27T10:12:40.096Z,88.49
2022-09-27T10:16:09.203Z,89.23
2022-09-27T10:19:37.359Z,88.96
2022-09-27T10:23:25.397Z,88.92
2022-09-27T10:26:48.630Z,89.14
2022-09-27T10:30:32.240Z,89.23
2022-09-27T10:34:07.392Z,88.47
2022-09-27T10:37:31.752Z,87.99
2022-09-27T10:40:56.077Z,88.50
2022-09-27T10:44:22.876Z,88.25
2022-09-27T10:47:47.136Z,87.93
2022-09-27T10:51:30.645Z,87.77
2022-09-27T10:54:59.618Z,87.10
2022-09-27T10:58:26.787Z,87.40
2022-09-27T11:01:53.117Z,87.30
2022-09-27T11:05:34.095Z,87.17
2022-09-27T11:09:10.068Z,87.39
2022-09-27T11:12:32.335Z,87.38
2022-09-27T11:16:11.576Z,87.40
2022-09-27T11:19:55.528Z,87.58
2022-09-27T11:23:49.325Z,87.03
2022-09-27T11:27:22.463Z,86.28
2022-09-27T11:30:52.926Z,85.77
2022-09-27T11:34:14.512Z,85.67
2022-09-27T11:37:54.633Z,85.35
2022-09-27T11:41:34.631Z,86.46
2022-09-27T11:45:26.808Z,86.42
2022-09-27T11:48:55.802Z,85.98
2022-09-27T11:52:20.371Z,84.86
2022-09-27T11:56:15.741Z,85.15
2022-09-27T11:59:37.730Z,86.14
2022-09-27T12:03:05.109Z,86.28
2022-09-27T12:06:57.779Z,86.10
2022-09-27T12:10:21.478Z,85.50
2022-09-27T12:13:51.618Z,85.69
2022-09-27T12:17:20.772Z,85.94
2022-09-27T12:20:44.004Z,85.80
2022-09-27T12:24:06.013Z,86.19
2022-09-27T12:27:33.223Z,86.41
2022-09-27T12:31:27.596Z,85.37
2022-09-27T12:35:18.396Z,84.81
2022-09-27T12:38:46.343Z,85.23
2022-09-27T12:42:19.714Z,85.49
2022-09-27T12:46:07.177Z,85.49
2022-09-27T12:49:45.140Z,85.55
2022-09-27T12:53:20.090Z,86.78
2022-09-27T12:56:47.455Z,85.92
2022-09-27T13:00:12.730Z,85.35
2022-09-27T13:04:10.556Z,85.46
2022-09-27T13:07:41.136Z,85.91
2022-09-27T13:11:17.129Z,85.59
2022-09-27T13:14:49.863Z,85.50
2022-09-27T13:18:54.981Z,83.77
2022-09-27T13:22:43.290Z,86.34
2022-09-27T13:26:23.334Z,84.95
2022-09-27T13:29:44.900Z,81.33
2022-09-27T13:33:09.479Z,83.81
2022-09-27T13:36:32.305Z,80.06
2022-09-27T13:40:18.507Z,77.69
2022-09-27T13:44:08.478Z,78.84
2022-09-27T13:47:37.593Z,80.35
2022-09-27T13:51:04.531Z,81.40
2022-09-27T13:54:50.211Z,81.28
2022-09-27T13:58:17.795Z,80.74
2022-09-27T14:01:53.359Z,81.96
2022-09-27T14:05:21.896Z,81.34
2022-09-27T14:08:48.138Z,81.24
2022-09-27T14:12:20.409Z,82.78
2022-09-27T14:15:45.283Z,83.56
2022-09-27T14:19:18.118Z,82.56
2022-09-27T14:22:44.050Z,80.96
2022-09-27T14:26:23.954Z,82.50
2022-09-27T14:29:53.636Z,75.27
2022-09-27T14:33:33.944Z,77.44
2022-09-27T14:37:14.580Z,81.04
2022-09-27T14:40:43.705Z,82.27
2022-09-27T14:44:14.265Z,93.34
2022-09-27T14:47:35.896Z,91.88
2022-09-27T14:51:05.743Z,80.17
2022-09-27T14:54:36.798Z,81.15
2022-09-27T14:58:04.653Z,82.31
2022-09-27T15:01:26.267Z,83.39
2022-09-27T15:04:50.997Z,84.61
2022-09-27T15:08:15.400Z,84.38
2022-09-27T15:11:39.419Z,85.51
2022-09-27T15:15:03.453Z,84.47
2022-09-27T15:18:41.368Z,84.71
2022-09-27T15:22:31.727Z,85.10
2022-09-27T15:26:08.439Z,85.09
2022-09-27T15:29:33.099Z,85.19
2022-09-27T15:32:57.659Z,83.23
2022-09-27T15:37:08.141Z,84.79
2022-09-27T15:40:48.107Z,85.19
2022-09-27T15:44:39.490Z,84.42
2022-09-27T15:48:14.644Z,85.44
2022-09-27T15:51:49.883Z,85.43
2022-09-27T15:55:12.359Z,84.79
2022-09-27T15:58:35.187Z,83.19
2022-09-27T16:02:08.221Z,82.09
2022-09-27T16:05:30.375Z,83.96
2022-09-27T16:08:54.894Z,84.80
2022-09-27T16:12:18.959Z,83.96
2022-09-27T16:15:45.558Z,83.35
2022-09-27T16:19:09.885Z,83.80
2022-09-27T16:22:31.411Z,84.27
2022-09-27T16:25:53.635Z,84.18
2022-09-27T16:29:16.419Z,84.41
2022-09-27T16:32:44.935Z,83.53
2022-09-27T16:36:14.190Z,84.70
2022-09-27T16:39:35.717Z,84.27
2022-09-27T16:42:57.209Z,84.24
2022-09-27T16:46:19.501Z,84.13
2022-09-27T16:49:59.675Z,84.33
2022-09-27T16:53:21.516Z,83.18
2022-09-27T16:56:43.092Z,80.02
2022-09-27T17:00:06.565Z,82.97
2022-09-27T17:03:28.667Z,83.22
2022-09-27T17:06:50.228Z,83.39
2022-09-27T17:10:11.757Z,83.16
2022-09-27T17:13:34.147Z,83.23
2022-09-27T17:16:55.668Z,83.32
2022-09-27T17:20:17.860Z,83.37
2022-09-27T17:23:42.132Z,81.39
2022-09-27T17:27:03.686Z,82.31
2022-09-27T17:30:26.178Z,81.96
2022-09-27T17:33:54.369Z,81.41
2022-09-27T17:37:19.810Z,83.40
2022-09-27T17:40:41.442Z,83.47
2022-09-27T17:44:05.234Z,82.68
2022-09-27T17:47:46.575Z,83.71
2022-09-27T17:51:12.650Z,81.66
2022-09-27T17:54:34.198Z,81.78
2022-09-27T17:57:56.187Z,82.54
2022-09-27T18:01:24.079Z,82.15
2022-09-27T18:04:45.685Z,83.73
2022-09-27T18:08:07.218Z,84.55
2022-09-27T18:11:33.200Z,84.88
2022-09-27T18:14:58.131Z,84.32
2022-09-27T18:18:22.612Z,84.30
2022-09-27T18:21:44.610Z,84.20
2022-09-27T18:25:08.948Z,83.21
2022-09-27T18:28:31.136Z,83.29
2022-09-27T18:31:55.060Z,84.35
2022-09-27T18:35:16.881Z,83.64
2022-09-27T18:38:41.217Z,84.12
2022-09-27T18:42:02.864Z,83.54
2022-09-27T18:45:25.499Z,83.76
2022-09-27T18:48:47.070Z,84.58
2022-09-27T18:52:13.441Z,84.11
2022-09-27T18:55:38.800Z,84.81
2022-09-27T18:59:03.102Z,85.09
2022-09-27T19:02:28.688Z,83.72
2022-09-27T19:05:56.628Z,84.22
2022-09-27T19:09:18.626Z,84.44
2022-09-27T19:12:42.592Z,85.00
2022-09-27T19:16:07.657Z,84.35
2022-09-27T19:19:29.227Z,84.07
2022-09-27T19:22:55.312Z,83.91
2022-09-27T19:26:19.708Z,85.25
2022-09-27T19:29:41.260Z,85.29
2022-09-27T19:33:04.850Z,85.54
2022-09-27T19:36:26.773Z,84.93
2022-09-27T19:39:51.246Z,84.63
2022-09-27T19:43:19.403Z,85.31
2022-09-27T19:46:41.014Z,85.22
2022-09-27T19:50:05.333Z,85.94
2022-09-27T19:53:32.425Z,85.02
2022-09-27T19:56:54.100Z,84.61
2022-09-27T20:00:15.841Z,85.13
2022-09-27T20:03:40.155Z,85.56
2022-09-27T20:07:02.049Z,85.92
2022-09-27T20:10:23.580Z,86.02
2022-09-27T20:13:45.274Z,85.00
2022-09-27T20:17:09.660Z,84.18
2022-09-27T20:20:31.136Z,85.28
2022-09-27T20:23:54.983Z,85.29
2022-09-27T20:27:16.558Z,84.04
2022-09-27T20:30:40.658Z,84.21
2022-09-27T20:34:05.818Z,84.20
2022-09-27T20:37:27.501Z,84.74
2022-09-27T20:40:59.079Z,84.95
2022-09-27T20:44:23.133Z,84.72
2022-09-27T20:47:44.665Z,84.95
2022-09-27T20:51:06.661Z,84.42
2022-09-27T20:54:28.208Z,84.32
2022-09-27T20:57:57.236Z,82.51
2022-09-27T21:01:22.777Z,82.74
2022-09-27T21:04:44.380Z,83.91
2022-09-27T21:08:06.000Z,83.35
2022-09-27T21:11:30.733Z,83.50
2022-09-27T21:14:52.293Z,82.77
2022-09-27T21:18:14.006Z,83.14
2022-09-27T21:21:35.535Z,82.11
2022-09-27T21:24:57.099Z,82.50
2022-09-27T21:28:20.677Z,82.98
2022-09-27T21:31:52.557Z,82.96
2022-09-27T21:35:16.627Z,82.16
2022-09-27T21:38:39.116Z,82.12
2022-09-27T21:42:03.170Z,81.12
2022-09-27T21:45:24.727Z,78.92
2022-09-27T21:48:48.446Z,79.28
2022-09-27T21:52:17.360Z,80.42
2022-09-27T21:55:38.890Z,78.73
2022-09-27T21:59:00.611Z,78.40
2022-09-27T22:02:23.416Z,77.22
2022-09-27T22:05:50.798Z,79.15
2022-09-27T22:09:16.138Z,77.76
2022-09-27T22:12:37.932Z,77.73
2022-09-27T22:16:19.476Z,77.63
2022-09-27T22:19:41.183Z,77.43
2022-09-27T22:23:07.212Z,79.74
2022-09-27T22:26:33.405Z,80.02
2022-09-27T22:29:54.898Z,80.43
2022-09-27T22:33:16.450Z,80.41
2022-09-27T22:36:38.067Z,79.66
2022-09-27T22:39:59.768Z,79.73
2022-09-27T22:43:21.331Z,79.29
2022-09-27T22:46:44.150Z,79.29
2022-09-27T22:50:08.723Z,78.62
2022-09-27T22:53:34.017Z,79.17
2022-09-27T22:56:57.921Z,79.30
2022-09-27T23:00:19.572Z,79.51
2022-09-27T23:03:43.679Z,79.54
2022-09-27T23:07:05.321Z,79.68
2022-09-27T23:10:32.161Z,79.69
2022-09-27T23:13:56.394Z,79.47
2022-09-27T23:17:20.153Z,79.14
2022-09-27T23:20:41.693Z,79.32
2022-09-27T23:24:03.396Z,78.72
2022-09-27T23:27:46.156Z,78.80
2022-09-27T23:31:16.864Z,78.89
2022-09-27T23:34:39.100Z,78.79
2022-09-27T23:38:01.450Z,78.79
2022-09-27T23:41:26.243Z,78.89
2022-09-27T23:44:47.767Z,79.65
2022-09-27T23:48:09.576Z,79.11
2022-09-27T23:51:31.383Z,78.27
2022-09-27T23:54:55.740Z,78.28
2022-09-27T23:58:17.515Z,78.57
